createdAt,value
2022-09-05T00:02:36.070Z,22.53
2022-09-05T00:05:48.384Z,22.63
2022-09-05T00:08:38.506Z,22.73
2022-09-05T00:11:41.448Z,22.52
2022-09-05T00:14:10.184Z,22.77
2022-09-05T00:16:58.139Z,22.46
2022-09-05T00:24:21.632Z,22.59
2022-09-05T00:24:28.563Z,22.49
2022-09-05T00:25:40.496Z,22.37
2022-09-05T00:28:25.962Z,22.13
2022-09-05T00:31:54.344Z,22.33
2022-09-05T00:34:07.141Z,22.50
2022-09-05T00:36:42.996Z,22.45
2022-09-05T00:39:14.802Z,22.49
2022-09-05T00:41:43.898Z,22.58
2022-09-05T00:44:13.691Z,22.41
2022-09-05T00:46:44.581Z,22.59
2022-09-05T00:49:18.809Z,22.56
2022-09-05T00:51:52.156Z,22.49
2022-09-05T00:54:41.151Z,22.49
2022-09-05T00:57:28.156Z,22.52
2022-09-05T01:00:17.588Z,22.59
2022-09-05T01:03:00.395Z,22.61
2022-09-05T01:05:42.079Z,22.59
2022-09-05T01:08:52.139Z,22.45
2022-09-05T01:11:32.660Z,22.21
2022-09-05T01:14:12.955Z,22.45
2022-09-05T01:17:10.639Z,22.30
2022-09-05T01:19:52.029Z,22.51
2022-09-05T01:22:34.437Z,22.17
2022-09-05T01:25:19.454Z,22.45
2022-09-05T01:29:15.201Z,22.50
2022-09-05T01:30:44.056Z,22.35
2022-09-05T01:33:19.955Z,22.39
2022-09-05T01:36:04.178Z,22.54
2022-09-05T01:41:29.310Z,22.14
2022-09-05T01:44:11.673Z,22.07
2022-09-05T01:46:44.780Z,22.11
2022-09-05T01:49:24.526Z,22.29
2022-09-05T01:52:09.911Z,22.17
2022-09-05T01:54:42.201Z,21.88
2022-09-05T01:57:19.433Z,21.89
2022-09-05T01:59:53.505Z,21.88
2022-09-05T02:02:33.224Z,22.00
2022-09-05T02:05:12.681Z,21.88
2022-09-05T02:07:59.647Z,22.00
2022-09-05T02:10:56.394Z,22.00
2022-09-05T02:13:28.687Z,22.25
2022-09-05T02:16:02.544Z,21.90
2022-09-05T02:18:44.121Z,21.88
2022-09-05T02:21:19.161Z,21.87
2022-09-05T02:23:49.985Z,21.83
2022-09-05T02:26:19.684Z,21.98
2022-09-05T02:28:52.903Z,22.07
2022-09-05T02:31:26.270Z,21.95
2022-09-05T02:34:01.724Z,22.18
2022-09-05T02:36:34.115Z,22.07
2022-09-05T02:45:03.765Z,21.99
2022-09-05T02:45:11.419Z,22.08
2022-09-05T02:45:20.340Z,22.12
2022-09-05T02:56:45.599Z,21.67
2022-09-05T02:57:25.464Z,21.86
2022-09-05T02:57:35.237Z,21.67
2022-09-05T02:59:10.576Z,21.95
2022-09-05T03:01:51.345Z,21.49
2022-09-05T03:04:32.304Z,21.44
2022-09-05T03:07:09.841Z,21.54
2022-09-05T03:09:49.197Z,21.37
2022-09-05T03:12:52.841Z,21.70
2022-09-05T03:15:55.258Z,21.56
2022-09-05T03:19:09.328Z,21.23
2022-09-05T03:22:09.413Z,21.17
2022-09-05T03:25:09.932Z,21.16
2022-09-05T03:28:17.614Z,21.13
2022-09-05T03:30:58.861Z,21.25
2022-09-05T03:33:52.075Z,21.31
2022-09-05T03:36:51.812Z,21.30
2022-09-05T03:39:47.637Z,20.88
2022-09-05T03:42:30.910Z,21.33
2022-09-05T03:45:26.986Z,21.47
2022-09-05T03:48:36.754Z,20.99
2022-09-05T03:57:08.214Z,21.01
2022-09-05T03:57:15.205Z,20.85
2022-09-05T03:57:38.791Z,20.96
2022-09-05T04:00:11.489Z,21.03
2022-09-05T04:08:06.240Z,20.88
2022-09-05T04:08:15.370Z,20.75
2022-09-05T04:08:42.382Z,20.86
2022-09-05T04:11:14.931Z,20.73
2022-09-05T04:13:48.076Z,20.64
2022-09-05T04:16:18.768Z,20.62
2022-09-05T04:18:49.816Z,20.54
2022-09-05T04:21:19.945Z,20.37
2022-09-05T04:23:53.853Z,20.26
2022-09-05T04:26:31.028Z,20.38
2022-09-05T04:29:04.515Z,20.49
2022-09-05T04:31:40.176Z,20.34
2022-09-05T04:34:18.580Z,20.21
2022-09-05T04:36:47.635Z,20.37
2022-09-05T04:39:26.290Z,20.36
2022-09-05T04:41:55.751Z,20.13
2022-09-05T04:44:28.574Z,20.22
2022-09-05T04:46:57.619Z,20.04
2022-09-05T04:49:27.691Z,20.18
2022-09-05T04:52:31.596Z,20.07
2022-09-05T04:55:04.021Z,20.00
2022-09-05T04:57:35.989Z,19.70
2022-09-05T05:04:33.769Z,20.06
2022-09-05T05:06:18.135Z,20.07
2022-09-05T05:06:18.910Z,19.90
2022-09-05T05:08:51.460Z,20.06
2022-09-05T05:14:47.175Z,19.96
2022-09-05T05:18:11.491Z,20.14
2022-09-05T05:18:13.759Z,19.88
2022-09-05T05:20:40.090Z,19.97
2022-09-05T05:22:49.739Z,20.08
2022-09-05T05:25:18.725Z,19.96
2022-09-05T05:27:48.965Z,20.10
2022-09-05T05:30:25.419Z,20.12
2022-09-05T05:32:55.771Z,19.90
2022-09-05T05:35:27.625Z,19.93
2022-09-05T05:38:11.351Z,19.85
2022-09-05T05:40:50.963Z,19.70
2022-09-05T05:43:22.623Z,19.77
2022-09-05T05:45:57.153Z,20.19
2022-09-05T05:48:31.564Z,19.96
2022-09-05T05:51:09.689Z,19.93
2022-09-05T05:53:47.882Z,20.31
2022-09-05T05:56:34.208Z,20.22
2022-09-05T05:59:28.241Z,20.01
2022-09-05T06:02:23.950Z,20.10
2022-09-05T06:05:28.258Z,19.97
2022-09-05T06:14:56.458Z,20.32
2022-09-05T06:15:09.281Z,20.22
2022-09-05T06:17:55.307Z,20.14
2022-09-05T06:22:08.868Z,20.08
2022-09-05T06:24:03.740Z,20.26
2022-09-05T06:26:55.472Z,19.98
2022-09-05T06:29:38.298Z,20.27
2022-09-05T06:32:21.916Z,20.42
2022-09-05T06:35:23.948Z,20.39
2022-09-05T06:38:02.951Z,20.30
2022-09-05T06:40:35.719Z,20.31
2022-09-05T06:43:09.380Z,20.42
2022-09-05T06:45:46.687Z,20.38
2022-09-05T06:48:23.863Z,20.44
2022-09-05T06:51:28.392Z,20.27
2022-09-05T06:54:04.990Z,20.56
2022-09-05T06:56:42.897Z,20.61
2022-09-05T06:59:35.606Z,20.72
2022-09-05T07:02:08.957Z,20.53
2022-09-05T07:05:24.427Z,20.62
2022-09-05T07:07:36.820Z,20.76
2022-09-05T07:10:34.664Z,20.48
2022-09-05T07:13:00.069Z,20.86
2022-09-05T07:15:38.135Z,20.49
2022-09-05T07:18:13.580Z,20.80
2022-09-05T07:24:09.435Z,21.20
2022-09-05T07:26:53.587Z,20.94
2022-09-05T07:29:27.992Z,21.03
2022-09-05T07:31:57.140Z,21.01
2022-09-05T07:34:29.234Z,21.27
2022-09-05T07:37:14.627Z,21.16
2022-09-05T07:39:46.054Z,21.12
2022-09-05T07:42:17.878Z,20.93
2022-09-05T07:44:51.555Z,21.13
2022-09-05T07:47:23.105Z,21.27
2022-09-05T07:50:26.346Z,21.51
2022-09-05T07:56:49.702Z,21.79
2022-09-05T07:57:07.807Z,21.81
2022-09-05T07:58:21.277Z,22.02
2022-09-05T08:00:54.734Z,22.07
2022-09-05T08:03:26.341Z,22.17
2022-09-05T08:05:55.080Z,22.25
2022-09-05T08:08:26.569Z,22.22
2022-09-05T08:11:23.566Z,22.37
2022-09-05T08:13:51.504Z,22.52
2022-09-05T08:16:23.368Z,22.61
2022-09-05T08:18:59.371Z,22.82
2022-09-05T08:21:31.484Z,22.97
2022-09-05T08:24:05.434Z,23.05
2022-09-05T08:26:47.069Z,23.09
2022-09-05T08:29:26.206Z,23.23
2022-09-05T08:31:58.134Z,23.30
2022-09-05T08:34:44.106Z,23.32
2022-09-05T08:37:15.154Z,23.40
2022-09-05T08:40:07.263Z,23.47
2022-09-05T08:42:49.423Z,23.36
2022-09-05T08:46:43.072Z,23.50
2022-09-05T08:48:46.994Z,23.39
2022-09-05T08:51:30.494Z,23.65
2022-09-05T08:54:11.865Z,23.60
2022-09-05T08:56:44.374Z,23.61
2022-09-05T08:59:32.741Z,23.68
2022-09-05T09:02:47.969Z,23.62
2022-09-05T09:05:29.841Z,23.99
2022-09-05T09:08:17.521Z,24.04
2022-09-05T09:10:53.173Z,23.98
2022-09-05T09:13:31.714Z,24.10
2022-09-05T09:16:06.346Z,24.08
2022-09-05T09:18:41.434Z,24.09
2022-09-05T09:21:25.717Z,24.19
2022-09-05T09:24:01.119Z,24.26
2022-09-05T09:26:30.859Z,24.20
2022-09-05T09:29:03.194Z,24.34
2022-09-05T09:32:02.507Z,24.53
2022-09-05T09:34:47.145Z,24.45
2022-09-05T09:37:55.299Z,24.50
2022-09-05T09:41:02.744Z,24.49
2022-09-05T09:43:38.846Z,24.44
2022-09-05T09:46:18.070Z,24.87
2022-09-05T09:49:03.025Z,24.61
2022-09-05T09:51:55.437Z,24.71
2022-09-05T09:54:54.341Z,24.84
2022-09-05T09:58:00.361Z,25.03
2022-09-05T10:00:42.070Z,25.08
2022-09-05T10:07:31.785Z,25.03
2022-09-05T10:10:40.083Z,25.31
2022-09-05T10:10:50.462Z,25.18
2022-09-05T10:13:09.193Z,25.12
2022-09-05T10:15:47.624Z,25.12
2022-09-05T10:18:26.959Z,24.91
2022-09-05T10:21:16.469Z,25.14
2022-09-05T10:24:00.507Z,24.85
2022-09-05T10:26:44.918Z,25.10
2022-09-05T10:29:36.845Z,25.08
2022-09-05T10:35:11.305Z,25.12
2022-09-05T10:35:17.909Z,25.24
2022-09-05T10:37:51.130Z,25.23
2022-09-05T10:40:21.753Z,25.29
2022-09-05T10:43:00.620Z,25.42
2022-09-05T10:45:38.465Z,25.24
2022-09-05T10:48:13.514Z,25.46
2022-09-05T10:50:43.960Z,25.62
2022-09-05T10:53:29.768Z,25.55
2022-09-05T10:56:11.858Z,25.99
2022-09-05T11:02:19.337Z,26.01
2022-09-05T11:02:26.778Z,25.97
2022-09-05T11:04:49.504Z,26.06
2022-09-05T11:07:29.209Z,26.10
2022-09-05T11:10:07.664Z,26.03
2022-09-05T11:12:57.742Z,25.93
2022-09-05T11:15:32.631Z,26.08
2022-09-05T11:18:04.923Z,26.33
2022-09-05T11:20:44.699Z,26.22
2022-09-05T11:23:17.835Z,26.22
2022-09-05T11:25:47.730Z,26.45
2022-09-05T11:28:17.953Z,26.68
2022-09-05T11:30:51.357Z,26.65
2022-09-05T11:36:56.504Z,26.52
2022-09-05T11:40:04.007Z,26.78
2022-09-05T11:40:28.844Z,26.69
2022-09-05T11:42:46.027Z,26.32
2022-09-05T11:45:46.841Z,26.36
2022-09-05T11:48:38.463Z,26.43
2022-09-05T11:51:37.425Z,26.33
2022-09-05T11:54:43.114Z,26.44
2022-09-05T11:57:33.448Z,26.42
2022-09-05T12:00:31.188Z,26.54
2022-09-05T12:06:47.883Z,26.58
2022-09-05T12:09:27.918Z,26.53
2022-09-05T12:12:06.101Z,26.48
2022-09-05T12:14:55.323Z,26.46
2022-09-05T12:17:35.365Z,26.43
2022-09-05T12:20:16.723Z,26.38
2022-09-05T12:22:48.440Z,26.41
2022-09-05T12:27:39.696Z,26.35
2022-09-05T12:29:34.976Z,26.21
2022-09-05T12:32:36.695Z,26.21
2022-09-05T12:36:04.239Z,26.16
2022-09-05T12:40:58.113Z,26.02
2022-09-05T12:41:32.940Z,26.14
2022-09-05T12:41:35.459Z,26.51
2022-09-05T12:44:37.784Z,26.01
2022-09-05T12:45:50.164Z,26.09
2022-09-05T12:48:25.146Z,26.01
2022-09-05T12:51:09.051Z,26.20
2022-09-05T12:53:45.469Z,25.93
2022-09-05T12:59:34.808Z,26.08
2022-09-05T13:02:57.432Z,26.03
2022-09-05T13:03:12.395Z,26.09
2022-09-05T13:05:01.719Z,26.15
2022-09-05T13:07:40.273Z,26.23
2022-09-05T13:13:46.998Z,26.20
2022-09-05T13:14:53.192Z,26.21
2022-09-05T13:15:54.699Z,26.08
2022-09-05T13:18:24.451Z,25.95
2022-09-05T13:21:02.489Z,25.94
2022-09-05T13:23:35.292Z,26.16
2022-09-05T13:26:14.080Z,26.37
2022-09-05T13:28:48.742Z,26.37
2022-09-05T13:37:55.424Z,26.39
2022-09-05T13:38:14.436Z,26.41
2022-09-05T13:38:20.014Z,26.38
2022-09-05T13:40:27.057Z,26.47
2022-09-05T13:42:59.424Z,26.47
2022-09-05T13:45:29.506Z,26.61
2022-09-05T13:48:28.257Z,26.68
2022-09-05T13:50:59.940Z,26.65
2022-09-05T13:53:36.680Z,26.57
2022-09-05T13:56:23.878Z,26.65
2022-09-05T13:58:57.167Z,26.69
2022-09-05T14:01:57.054Z,26.64
2022-09-05T14:05:13.432Z,26.47
2022-09-05T14:08:24.284Z,26.61
2022-09-05T14:11:12.645Z,26.62
2022-09-05T14:13:56.155Z,26.58
2022-09-05T14:16:25.767Z,26.51
2022-09-05T14:19:12.523Z,26.63
2022-09-05T14:21:41.943Z,26.66
2022-09-05T14:24:13.548Z,26.53
2022-09-05T14:26:45.112Z,26.69
2022-09-05T14:29:17.848Z,26.76
2022-09-05T14:37:41.028Z,26.78
2022-09-05T14:38:00.903Z,26.58
2022-09-05T14:38:05.690Z,26.84
2022-09-05T14:41:13.465Z,26.90
2022-09-05T14:43:57.237Z,26.82
2022-09-05T14:46:46.612Z,26.79
2022-09-05T14:49:57.561Z,26.81
2022-09-05T14:52:26.761Z,26.79
2022-09-05T15:02:41.619Z,26.58
2022-09-05T15:02:51.542Z,26.50
2022-09-05T15:06:32.944Z,26.61
2022-09-05T15:12:18.301Z,26.61
2022-09-05T15:12:21.670Z,26.42
2022-09-05T15:14:39.317Z,26.44
2022-09-05T15:17:07.088Z,26.60
2022-09-05T15:20:05.288Z,26.59
2022-09-05T15:22:38.496Z,26.42
2022-09-05T15:25:17.301Z,26.40
2022-09-05T15:27:46.344Z,26.40
2022-09-05T15:30:20.493Z,26.14
2022-09-05T15:32:50.626Z,26.40
2022-09-05T15:35:37.204Z,26.47
2022-09-05T15:38:22.486Z,26.49
2022-09-05T15:41:03.271Z,26.26
2022-09-05T15:43:31.193Z,26.07
2022-09-05T15:46:02.166Z,26.02
2022-09-05T15:48:34.018Z,25.99
2022-09-05T15:51:12.055Z,26.19
2022-09-05T15:53:42.011Z,25.95
2022-09-05T15:56:19.242Z,25.87
2022-09-05T15:58:52.241Z,25.96
2022-09-05T16:01:52.372Z,25.86
2022-09-05T16:10:30.876Z,25.67
2022-09-05T16:10:36.334Z,25.92
2022-09-05T16:10:43.463Z,25.79
2022-09-05T16:12:50.305Z,25.85
2022-09-05T16:18:10.335Z,25.66
2022-09-05T16:23:15.377Z,25.71
2022-09-05T16:23:26.204Z,25.73
2022-09-05T16:23:58.036Z,25.89
2022-09-05T16:26:33.220Z,25.92
2022-09-05T16:29:04.520Z,25.82
2022-09-05T16:31:39.065Z,25.83
2022-09-05T16:34:11.802Z,25.84
2022-09-05T16:36:57.924Z,25.93
2022-09-05T16:39:38.271Z,25.95
2022-09-05T16:42:16.107Z,25.79
2022-09-05T16:44:48.109Z,26.00
2022-09-05T16:47:24.416Z,25.85
2022-09-05T16:49:59.749Z,25.94
2022-09-05T16:52:31.424Z,26.09
2022-09-05T16:55:05.787Z,26.01
2022-09-05T16:57:36.580Z,25.88
2022-09-05T17:00:05.742Z,25.78
2022-09-05T17:02:40.238Z,25.70
2022-09-05T17:05:12.424Z,25.70
2022-09-05T17:08:00.020Z,25.64
2022-09-05T17:10:30.136Z,25.79
2022-09-05T17:12:59.180Z,25.78
2022-09-05T17:15:32.390Z,25.69
2022-09-05T17:18:21.513Z,25.58
2022-09-05T17:20:56.097Z,25.44
2022-09-05T17:29:19.905Z,25.72
2022-09-05T17:29:24.245Z,25.56
2022-09-05T17:32:48.037Z,25.60
2022-09-05T17:35:32.154Z,25.43
2022-09-05T17:38:22.124Z,25.33
2022-09-05T17:41:11.828Z,25.13
2022-09-05T17:43:40.656Z,25.17
2022-09-05T17:46:16.917Z,24.98
2022-09-05T17:49:19.102Z,25.25
2022-09-05T17:52:23.136Z,25.12
2022-09-05T17:54:53.602Z,25.08
2022-09-05T17:57:41.233Z,25.34
2022-09-05T18:00:59.832Z,25.43
2022-09-05T18:04:18.131Z,25.10
2022-09-05T18:06:59.934Z,25.18
2022-09-05T18:10:07.616Z,25.05
2022-09-05T18:13:31.715Z,25.33
2022-09-05T18:16:10.364Z,25.04
2022-09-05T18:19:32.349Z,25.11
2022-09-05T18:21:48.061Z,25.29
2022-09-05T18:24:32.575Z,25.17
2022-09-05T18:27:35.121Z,24.92
2022-09-05T18:29:57.913Z,25.18
2022-09-05T18:32:45.587Z,25.27
2022-09-05T18:35:36.733Z,25.00
2022-09-05T18:38:51.355Z,24.83
2022-09-05T18:41:22.004Z,25.08
2022-09-05T18:44:13.539Z,25.01
2022-09-05T18:46:49.179Z,25.12
2022-09-05T18:50:21.684Z,24.71
2022-09-05T18:52:15.944Z,25.04
2022-09-05T18:54:45.170Z,24.87
2022-09-05T18:57:32.785Z,24.89
2022-09-05T19:00:09.879Z,24.67
2022-09-05T19:02:51.607Z,24.81
2022-09-05T19:05:37.457Z,24.98
2022-09-05T19:08:26.702Z,25.18
2022-09-05T19:10:59.475Z,25.07
2022-09-05T19:13:32.388Z,25.06
2022-09-05T19:16:42.265Z,25.15
2022-09-05T19:19:16.139Z,25.26
2022-09-05T19:21:57.151Z,25.22
2022-09-05T19:24:45.574Z,24.83
2022-09-05T19:28:55.518Z,24.95
2022-09-05T19:36:48.626Z,24.98
2022-09-05T19:36:58.158Z,24.64
2022-09-05T19:37:08.888Z,24.56
2022-09-05T19:38:31.700Z,24.87
2022-09-05T19:47:25.996Z,24.53
2022-09-05T19:47:35.530Z,24.81
2022-09-05T19:47:44.059Z,24.54
2022-09-05T19:49:57.947Z,24.36
2022-09-05T19:52:25.824Z,24.37
2022-09-05T19:54:55.977Z,24.22
2022-09-05T19:57:25.374Z,24.02
2022-09-05T19:59:54.647Z,24.27
2022-09-05T20:02:27.201Z,24.17
2022-09-05T20:04:56.397Z,24.43
2022-09-05T20:07:25.804Z,24.26
2022-09-05T20:09:55.096Z,24.13
2022-09-05T20:12:32.056Z,24.14
2022-09-05T20:15:19.541Z,24.22
2022-09-05T20:17:48.736Z,24.16
2022-09-05T20:20:18.453Z,24.14
2022-09-05T20:22:50.622Z,24.26
2022-09-05T20:25:35.114Z,24.24
2022-09-05T20:28:10.204Z,24.20
2022-09-05T20:30:41.589Z,23.97
2022-09-05T20:33:17.541Z,23.78
2022-09-05T20:38:19.088Z,23.97
2022-09-05T20:43:20.997Z,23.87
2022-09-05T20:43:34.977Z,23.71
2022-09-05T20:44:22.681Z,23.78
2022-09-05T20:49:27.382Z,24.00
2022-09-05T20:54:16.032Z,24.16
2022-09-05T20:54:22.373Z,23.99
2022-09-05T20:55:40.353Z,23.86
2022-09-05T20:58:13.340Z,24.16
2022-09-05T21:01:15.417Z,23.97
2022-09-05T21:03:38.279Z,23.78
2022-09-05T21:06:22.063Z,23.69
2022-09-05T21:08:50.870Z,23.80
2022-09-05T21:11:18.807Z,23.54
2022-09-05T21:13:52.958Z,23.79
2022-09-05T21:16:23.309Z,23.84
2022-09-05T21:18:51.867Z,23.85
2022-09-05T21:21:28.564Z,23.72
2022-09-05T21:24:15.878Z,23.68
2022-09-05T21:26:47.339Z,23.40
2022-09-05T21:29:17.394Z,23.68
2022-09-05T21:31:49.188Z,23.90
2022-09-05T21:34:25.675Z,23.77
2022-09-05T21:37:06.593Z,23.80
2022-09-05T21:39:39.878Z,23.54
2022-09-05T21:42:44.263Z,23.24
2022-09-05T21:47:43.654Z,23.16
2022-09-05T21:47:53.286Z,23.25
2022-09-05T21:50:31.354Z,23.64
2022-09-05T21:54:16.103Z,23.07
2022-09-05T21:59:27.557Z,23.36
2022-09-05T21:59:37.194Z,23.25
2022-09-05T22:01:52.032Z,23.30
2022-09-05T22:04:19.241Z,23.31
2022-09-05T22:06:48.122Z,23.40
2022-09-05T22:09:17.650Z,23.40
2022-09-05T22:11:49.945Z,23.63
2022-09-05T22:14:18.140Z,23.58
2022-09-05T22:16:47.224Z,23.58
2022-09-05T22:19:17.662Z,23.54
2022-09-05T22:21:45.595Z,23.62
2022-09-05T22:24:13.827Z,23.75
2022-09-05T22:26:57.384Z,23.72
2022-09-05T22:29:35.340Z,23.49
2022-09-05T22:32:05.144Z,23.56
2022-09-05T22:34:33.190Z,23.63
2022-09-05T22:37:01.029Z,23.60
2022-09-05T22:39:37.016Z,23.55
2022-09-05T22:42:10.691Z,23.37
2022-09-05T22:44:39.661Z,23.50
2022-09-05T22:47:07.997Z,23.15
2022-09-05T22:49:36.271Z,23.43
2022-09-05T22:52:05.435Z,23.39
2022-09-05T22:54:33.249Z,23.52
2022-09-05T22:57:03.043Z,23.48
2022-09-05T22:59:32.166Z,23.39
2022-09-05T23:02:00.034Z,23.24
2022-09-05T23:04:29.750Z,23.26
2022-09-05T23:06:57.560Z,23.23
2022-09-05T23:09:25.295Z,22.85
2022-09-05T23:11:53.028Z,22.97
2022-09-05T23:14:20.825Z,22.63
2022-09-05T23:16:49.972Z,23.04
2022-09-05T23:19:17.722Z,23.00
2022-09-05T23:21:45.509Z,22.88
2022-09-05T23:24:13.291Z,22.76
2022-09-05T23:26:41.079Z,22.76
2022-09-05T23:29:08.840Z,22.91
2022-09-05T23:31:36.663Z,22.77
2022-09-05T23:34:05.871Z,22.49
2022-09-05T23:36:33.804Z,22.32
2022-09-05T23:39:03.033Z,22.71
2022-09-05T23:41:31.619Z,22.76
2022-09-05T23:43:59.397Z,22.85
2022-09-05T23:46:27.243Z,22.76
2022-09-05T23:48:55.027Z,22.99
2022-09-05T23:51:24.201Z,22.73
2022-09-05T23:53:51.973Z,22.84
2022-09-05T23:56:19.752Z,22.40
2022-09-05T23:58:47.448Z,22.70
